Time;durP1;ratioP1;P1;durP2;ratioP2;P2;SDS_P1;SDS_P2;PMS_P1;PMS_P2;Temp;Humidity;BMP_temperature;BMP_pressure;BME280_temperature;BME280_humidity;BME280_pressure;Samples;Min_cycle;Max_cycle;Signal;HPM_P1;HPM_P2
2022/07/22 06:45:15;;;;;;;;;;;;;;;22.92;90.96;100302.50;5128463;27;19919;-64
2022/07/22 06:47:41;;;;;;;;;;;;;;;23.15;86.84;100303.41;5128016;28;19915;-65
2022/07/22 06:50:07;;;;;;;;;;;;;;;23.21;85.31;100300.22;5128196;28;19915;-65
2022/07/22 06:52:32;;;;;;;;;;;;;;;23.37;86.74;100304.31;5111093;28;20290;-65
2022/07/22 06:54:57;;;;;;;;;;;;;;;23.54;84.20;100305.69;5066987;28;19913;-66
2022/07/22 06:57:23;;;;;;;;;;;;;;;23.76;83.59;100302.91;5066887;28;19916;-65
2022/07/22 06:59:48;;;;;;;;;;;;;;;23.88;83.35;100293.75;5057925;28;19924;-65
2022/07/22 07:02:14;;;;;;;;;;;;;;;24.03;82.19;100305.22;5058029;28;19947;-65
2022/07/22 07:04:39;;;;;;;;;;;;;;;24.22;82.34;100294.53;5066791;28;19958;-65
2022/07/22 07:07:04;;;;;;;;;;;;;;;24.45;81.76;100301.59;5051195;28;19982;-65
2022/07/22 07:09:30;;;;;;;;;;;;;;;24.66;80.25;100305.25;5045520;28;20326;-65
2022/07/22 07:11:55;;;;;;;;;;;;;;;24.87;79.33;100295.25;5045147;28;19924;-65
2022/07/22 07:14:20;;;;;;;;;;;;;;;25.01;77.12;100299.50;5042147;28;20302;-65
2022/07/22 07:16:46;;;;;;;;;;;;;;;25.16;77.94;100293.53;5030603;28;19930;-65
2022/07/22 07:19:11;;;;;;;;;;;;;;;25.29;76.54;100298.75;5025693;28;19982;-65
2022/07/22 07:21:36;;;;;;;;;;;;;;;25.46;75.12;100295.44;5033659;28;20192;-65
2022/07/22 07:24:02;;;;;;;;;;;;;;;25.62;73.97;100293.91;5044219;28;19954;-65
2022/07/22 07:26:27;;;;;;;;;;;;;;;25.73;72.21;100292.97;5035948;28;20399;-66
2022/07/22 07:28:52;;;;;;;;;;;;;;;25.81;73.53;100295.84;5023827;28;19934;-65
2022/07/22 07:31:18;;;;;;;;;;;;;;;25.96;72.94;100299.91;5023778;28;19971;-65
2022/07/22 07:33:43;;;;;;;;;;;;;;;26.25;71.06;100283.59;5026342;28;19931;-65
2022/07/22 07:36:08;;;;;;;;;;;;;;;26.64;69.80;100296.25;5023571;28;19969;-65
2022/07/22 07:38:34;;;;;;;;;;;;;;;26.75;67.44;100293.41;5023284;28;20307;-66
2022/07/22 07:40:59;;;;;;;;;;;;;;;27.05;66.15;100299.50;5023948;28;19929;-66
2022/07/22 07:43:24;;;;;;;;;;;;;;;27.24;66.84;100295.88;5023946;28;19964;-66
2022/07/22 07:45:50;;;;;;;;;;;;;;;27.41;64.97;100292.41;5026107;28;19933;-66
2022/07/22 07:48:15;;;;;;;;;;;;;;;27.64;63.30;100296.47;5028785;28;19928;-66
2022/07/22 07:50:40;;;;;;;;;;;;;;;27.85;62.29;100297.06;5024099;28;20030;-65
2022/07/22 07:53:08;;;;;;;;;;;;;;;28.05;62.41;100286.88;5034357;28;19935;-65
2022/07/22 07:55:37;;;;;;;;;;;;;;;28.39;61.10;100293.41;5037026;28;19925;-65
2022/07/22 07:58:02;;;;;;;;;;;;;;;28.52;61.79;100295.78;5017428;28;20390;-66
2022/07/22 08:00:28;;;;;;;;;;;;;;;28.56;60.18;100297.19;5020627;28;19996;-66
2022/07/22 08:02:55;;;;;;;;;;;;;;;28.69;58.59;100286.69;5030095;28;19925;-65
2022/07/22 08:05:21;;;;;;;;;;;;;;;28.84;58.29;100291.44;5025351;28;19954;-65
2022/07/22 08:07:47;;;;;;;;;;;;;;;29.10;60.34;100286.88;5018371;28;20002;-66
2022/07/22 08:10:12;;;;;;;;;;;;;;;29.28;57.69;100284.06;5009148;28;20315;-66
2022/07/22 08:12:37;;;;;;;;;;;;;;;29.32;55.38;100288.22;5012925;28;19935;-66
2022/07/22 08:15:03;;;;;;;;;;;;;;;29.35;57.00;100286.00;5010372;28;20414;-66
2022/07/22 08:17:28;;;;;;;;;;;;;;;29.51;58.74;100282.47;5009143;28;19995;-66
2022/07/22 08:19:53;;;;;;;;;;;;;;;29.54;55.92;100285.75;5008667;28;19935;-66
2022/07/22 08:22:19;;;;;;;;;;;;;;;29.78;56.74;100282.28;5021028;28;19971;-66
2022/07/22 08:24:44;;;;;;;;;;;;;;;29.97;54.69;100281.16;5028523;28;20000;-66
2022/07/22 08:27:09;;;;;;;;;;;;;;;29.94;53.69;100279.59;5027395;28;20446;-66
2022/07/22 08:29:34;;;;;;;;;;;;;;;30.22;54.63;100278.34;5029897;28;19975;-66
2022/07/22 08:32:00;;;;;;;;;;;;;;;30.27;54.11;100275.06;5030152;28;20018;-65
2022/07/22 08:34:25;;;;;;;;;;;;;;;30.49;55.77;100272.56;5028722;28;20289;-66
2022/07/22 08:36:50;;;;;;;;;;;;;;;30.60;53.79;100269.47;5028970;28;19936;-65
2022/07/22 08:39:16;;;;;;;;;;;;;;;30.57;53.19;100275.28;5030302;28;19967;-65
2022/07/22 08:41:41;;;;;;;;;;;;;;;30.84;53.87;100263.13;5031485;28;19934;-65
2022/07/22 08:44:08;;;;;;;;;;;;;;;31.17;53.98;100259.28;5031452;28;20394;-65
2022/07/22 08:46:33;;;;;;;;;;;;;;;31.22;50.12;100256.03;5031548;28;19928;-66
2022/07/22 08:49:01;;;;;;;;;;;;;;;31.38;52.17;100250.50;5031357;28;19982;-65
2022/07/22 08:51:26;;;;;;;;;;;;;;;31.60;51.89;100250.56;5031057;28;19938;-65
2022/07/22 08:53:51;;;;;;;;;;;;;;;31.80;50.43;100248.25;5012220;28;20305;-66
2022/07/22 08:56:17;;;;;;;;;;;;;;;31.63;49.93;100246.63;5029922;28;19921;-65
2022/07/22 08:58:42;;;;;;;;;;;;;;;31.54;49.47;100247.69;5030097;28;19924;-65
2022/07/22 09:01:12;;;;;;;;;;;;;;;31.43;50.75;100248.09;5029771;28;20387;-65
2022/07/22 09:03:51;;;;;;;;;;;;;;;31.49;49.60;100244.59;5029905;28;19954;-66
2022/07/22 09:06:16;;;;;;;;;;;;;;;31.53;51.58;100243.22;5029631;28;19975;-65
2022/07/22 09:08:56;;;;;;;;;;;;;;;31.43;51.04;100242.59;5030617;28;20338;-65
2022/07/22 09:11:22;;;;;;;;;;;;;;;31.45;50.73;100240.53;5031257;28;19966;-66
2022/07/22 09:13:48;;;;;;;;;;;;;;;31.63;49.72;100235.63;5030969;28;20031;-65
2022/07/22 09:16:13;;;;;;;;;;;;;;;31.75;50.23;100240.53;5031051;28;20555;-65
2022/07/22 09:18:49;;;;;;;;;;;;;;;31.99;48.72;100234.09;5031331;28;19984;-66
2022/07/22 09:21:14;;;;;;;;;;;;;;;31.99;50.28;100228.59;5013172;28;20331;-65
2022/07/22 09:23:40;;;;;;;;;;;;;;;31.98;48.99;100227.72;5023381;28;19947;-65
2022/07/22 09:26:06;;;;;;;;;;;;;;;31.93;50.24;100226.53;5010285;28;20011;-65
2022/07/22 09:28:31;;;;;;;;;;;;;;;32.24;51.12;100230.09;5011972;28;20015;-65
2022/07/22 09:30:56;;;;;;;;;;;;;;;32.46;48.71;100228.44;5009285;28;20276;-66
2022/07/22 09:33:22;;;;;;;;;;;;;;;32.70;49.44;100225.47;5009651;28;20047;-65
2022/07/22 09:35:48;;;;;;;;;;;;;;;32.61;49.45;100221.06;5009607;28;19950;-65
2022/07/22 09:38:14;;;;;;;;;;;;;;;32.75;48.53;100221.09;5010819;28;19986;-66
2022/07/22 09:40:41;;;;;;;;;;;;;;;33.03;46.71;100219.47;5010720;28;19933;-66
2022/07/22 09:43:11;;;;;;;;;;;;;;;33.12;47.22;100221.09;5010914;28;19927;-66
2022/07/22 09:45:43;;;;;;;;;;;;;;;33.18;46.11;100209.31;5010649;28;19930;-66
2022/07/22 09:48:08;;;;;;;;;;;;;;;33.25;45.94;100207.50;5010931;28;19924;-66
2022/07/22 09:50:34;;;;;;;;;;;;;;;33.07;45.49;100209.78;5010134;28;19931;-66
2022/07/22 09:53:00;;;;;;;;;;;;;;;33.10;46.88;100201.13;5024925;28;19929;-66
2022/07/22 09:55:27;;;;;;;;;;;;;;;33.28;46.11;100207.13;5028771;28;19931;-66
2022/07/22 09:57:53;;;;;;;;;;;;;;;33.34;45.96;100200.84;5029267;28;19956;-66
2022/07/22 10:00:20;;;;;;;;;;;;;;;33.42;46.77;100196.31;5024337;28;20249;-66
2022/07/22 10:02:45;;;;;;;;;;;;;;;33.73;46.31;100197.78;5008832;28;20376;-66
2022/07/22 10:05:11;;;;;;;;;;;;;;;33.60;44.98;100197.63;5010148;28;19954;-66
2022/07/22 10:07:38;;;;;;;;;;;;;;;33.70;47.32;100192.66;5010361;28;19944;-65
2022/07/22 10:10:04;;;;;;;;;;;;;;;33.59;44.64;100190.41;5010804;28;19942;-65
2022/07/22 10:12:30;;;;;;;;;;;;;;;33.38;46.29;100185.63;5012316;28;19938;-65
2022/07/22 10:14:56;;;;;;;;;;;;;;;33.47;46.40;100191.06;5013928;28;20031;-65
2022/07/22 10:17:21;;;;;;;;;;;;;;;33.80;46.26;100192.34;5011728;28;20407;-65
2022/07/22 10:19:47;;;;;;;;;;;;;;;33.80;45.38;100186.81;5012601;28;19970;-65
2022/07/22 10:22:31;;;;;;;;;;;;;;;33.71;45.15;100194.34;5031127;28;19929;-65
2022/07/22 10:25:00;;;;;;;;;;;;;;;34.05;46.10;100188.22;5031814;28;20405;-65
2022/07/22 10:27:44;;;;;;;;;;;;;;;34.22;43.02;100181.34;5031611;28;20347;-65
2022/07/22 10:30:10;;;;;;;;;;;;;;;34.26;44.45;100177.16;5026829;28;19936;-65
2022/07/22 10:32:35;;;;;;;;;;;;;;;34.22;44.25;100181.34;5013778;28;19931;-65
2022/07/22 10:35:03;;;;;;;;;;;;;;;34.13;45.36;100172.38;5011681;28;20367;-65
2022/07/22 10:37:34;;;;;;;;;;;;;;;34.42;42.81;100172.25;5011678;28;19933;-65
2022/07/22 10:40:26;;;;;;;;;;;;;;;34.64;43.44;100170.31;5011584;28;19976;-65
2022/07/22 10:43:00;;;;;;;;;;;;;;;34.70;42.51;100157.59;4980959;28;19932;-65
2022/07/22 10:45:29;;;;;;;;;;;;;;;34.96;43.05;100163.34;5011602;28;20375;-65
2022/07/22 10:47:56;;;;;;;;;;;;;;;35.08;42.58;100157.03;5011639;28;19980;-65
2022/07/22 10:50:39;;;;;;;;;;;;;;;34.82;41.61;100151.31;5011237;28;19925;-65
2022/07/22 10:53:06;;;;;;;;;;;;;;;34.74;43.46;100153.38;5024743;28;20037;-65
2022/07/22 10:55:32;;;;;;;;;;;;;;;35.16;42.75;100148.56;5029294;28;19956;-65
2022/07/22 10:57:57;;;;;;;;;;;;;;;35.21;41.33;100148.81;5029340;28;20486;-66
2022/07/22 11:00:23;;;;;;;;;;;;;;;35.36;40.61;100143.13;5029322;28;19966;-65
2022/07/22 11:02:48;;;;;;;;;;;;;;;35.42;40.67;100143.19;5029365;28;19957;-65
2022/07/22 11:05:13;;;;;;;;;;;;;;;35.68;39.73;100136.91;5029311;28;20383;-66
2022/07/22 11:07:45;;;;;;;;;;;;;;;35.38;41.00;100130.84;5031065;28;19946;-66
2022/07/22 11:10:12;;;;;;;;;;;;;;;35.64;41.01;100130.94;5031158;28;20022;-67
2022/07/22 11:12:38;;;;;;;;;;;;;;;35.97;40.31;100131.06;5031567;28;19935;-67
2022/07/22 11:15:06;;;;;;;;;;;;;;;36.34;39.70;100126.88;5031046;28;19931;-67
2022/07/22 11:17:34;;;;;;;;;;;;;;;36.40;38.57;100123.22;5031055;28;20025;-67
2022/07/22 11:20:00;;;;;;;;;;;;;;;36.20;39.29;100120.44;5022545;28;19931;-67
2022/07/22 11:22:25;;;;;;;;;;;;;;;36.25;39.28;100122.56;5021278;28;20348;-66
2022/07/22 11:24:50;;;;;;;;;;;;;;;36.22;39.69;100128.53;5030905;28;19945;-66
2022/07/22 11:27:16;;;;;;;;;;;;;;;36.35;38.15;100117.47;5030978;28;19948;-67
2022/07/22 11:29:44;;;;;;;;;;;;;;;36.51;38.92;100117.06;5027365;28;20295;-66
2022/07/22 11:32:10;;;;;;;;;;;;;;;36.47;39.69;100113.00;5026632;28;20017;-67
2022/07/22 11:34:42;;;;;;;;;;;;;;;36.67;38.52;100116.63;5014712;28;19928;-67
2022/07/22 11:37:08;;;;;;;;;;;;;;;36.66;37.94;100112.13;5014664;28;20159;-67
2022/07/22 11:39:33;;;;;;;;;;;;;;;36.57;38.01;100110.66;5014904;28;19988;-66
2022/07/22 11:42:00;;;;;;;;;;;;;;;36.63;38.34;100112.56;5014925;28;19985;-66
2022/07/22 11:44:29;;;;;;;;;;;;;;;36.58;37.47;100104.91;5014557;28;20016;-66
2022/07/22 11:46:58;;;;;;;;;;;;;;;36.37;38.17;100104.25;5014259;28;20033;-66
2022/07/22 11:49:23;;;;;;;;;;;;;;;36.49;38.89;100103.41;5014692;28;19939;-66
2022/07/22 11:51:50;;;;;;;;;;;;;;;36.64;37.80;100097.66;5018574;28;20513;-66
2022/07/22 11:54:16;;;;;;;;;;;;;;;36.76;39.25;100094.00;5033342;28;20309;-66
2022/07/22 11:56:41;;;;;;;;;;;;;;;36.98;37.68;100086.28;5033124;28;19927;-66
2022/07/22 11:59:08;;;;;;;;;;;;;;;37.02;37.64;100092.25;5033316;28;19925;-66
2022/07/22 12:01:34;;;;;;;;;;;;;;;37.27;37.12;100083.00;5033622;28;19930;-66
2022/07/22 12:04:03;;;;;;;;;;;;;;;37.31;37.35;100075.09;5034521;28;20324;-66
2022/07/22 12:06:29;;;;;;;;;;;;;;;37.40;35.45;100074.63;5033810;28;20333;-66
2022/07/22 12:08:55;;;;;;;;;;;;;;;37.37;36.95;100072.28;5034242;28;19953;-66
2022/07/22 12:11:23;;;;;;;;;;;;;;;37.50;36.13;100069.44;5032903;28;20049;-66
2022/07/22 12:13:50;;;;;;;;;;;;;;;37.75;34.98;100062.06;5030349;28;19936;-66
2022/07/22 12:16:19;;;;;;;;;;;;;;;38.11;35.79;100065.00;5012528;28;19926;-66
2022/07/22 12:18:50;;;;;;;;;;;;;;;37.95;35.58;100060.00;5012346;28;19937;-66
2022/07/22 12:21:16;;;;;;;;;;;;;;;38.08;34.11;100051.56;5015918;28;19923;-66
2022/07/22 12:23:48;;;;;;;;;;;;;;;37.98;35.80;100062.31;5031969;28;19964;-66
2022/07/22 12:26:14;;;;;;;;;;;;;;;37.90;34.18;100048.72;5032358;28;19973;-66
2022/07/22 12:28:39;;;;;;;;;;;;;;;37.98;35.29;100050.34;5013741;28;19924;-66
2022/07/22 12:31:04;;;;;;;;;;;;;;;37.85;35.52;100034.66;5013893;28;19943;-66
2022/07/22 12:33:30;;;;;;;;;;;;;;;38.15;35.28;100041.28;5014178;28;20016;-66
2022/07/22 12:36:03;;;;;;;;;;;;;;;38.33;34.67;100032.13;5013623;28;19928;-66
2022/07/22 12:38:29;;;;;;;;;;;;;;;38.47;35.09;100027.28;5016378;28;19974;-66
2022/07/22 12:40:54;;;;;;;;;;;;;;;38.51;34.51;100028.50;5013371;28;20012;-66
2022/07/22 12:43:23;;;;;;;;;;;;;;;38.38;34.59;100023.94;5013257;28;19970;-66
2022/07/22 12:45:48;;;;;;;;;;;;;;;38.29;35.36;100018.91;5017818;28;19938;-66
2022/07/22 12:48:14;;;;;;;;;;;;;;;38.45;33.87;100018.31;5027149;28;19930;-66
2022/07/22 12:50:43;;;;;;;;;;;;;;;38.50;35.38;100012.94;5033636;28;19968;-66
2022/07/22 12:53:08;;;;;;;;;;;;;;;38.32;34.99;100012.91;5033507;28;19947;-66
2022/07/22 12:55:35;;;;;;;;;;;;;;;38.44;35.32;100011.06;5033050;28;19933;-67
2022/07/22 12:58:01;;;;;;;;;;;;;;;38.30;34.79;100015.06;5033040;28;19930;-67
2022/07/22 13:00:32;;;;;;;;;;;;;;;38.36;34.97;100011.34;5027814;28;20335;-66
2022/07/22 13:02:57;;;;;;;;;;;;;;;38.17;34.94;100011.31;5011870;28;20288;-67
2022/07/22 13:05:23;;;;;;;;;;;;;;;37.98;36.17;100006.75;5012262;28;19956;-66
2022/07/22 13:07:48;;;;;;;;;;;;;;;38.11;36.75;100006.63;5013166;28;19932;-64
2022/07/22 13:10:14;;;;;;;;;;;;;;;38.25;34.85;100000.97;5012624;28;20380;-66
2022/07/22 13:12:40;;;;;;;;;;;;;;;38.15;34.36;99996.81;5013201;28;19944;-66
2022/07/22 13:15:05;;;;;;;;;;;;;;;38.02;34.96;99994.09;5013063;28;19925;-66
2022/07/22 13:17:31;;;;;;;;;;;;;;;38.41;35.81;99994.81;5013049;28;19999;-66
2022/07/22 13:19:56;;;;;;;;;;;;;;;38.30;34.24;99993.66;5012807;28;20011;-66
2022/07/22 13:22:21;;;;;;;;;;;;;;;38.26;35.69;99997.13;5021887;28;19936;-66
2022/07/22 13:24:46;;;;;;;;;;;;;;;38.18;34.23;99998.28;5032342;28;20435;-66
2022/07/22 13:27:12;;;;;;;;;;;;;;;38.03;35.07;100004.16;5026513;28;19933;-66
2022/07/22 13:29:38;;;;;;;;;;;;;;;38.00;35.32;100010.16;5032464;28;20419;-66
2022/07/22 13:32:03;;;;;;;;;;;;;;;38.16;35.08;99998.50;5018962;28;20018;-66
2022/07/22 13:34:28;;;;;;;;;;;;;;;38.03;34.67;99995.81;5012659;28;19979;-66
2022/07/22 13:36:53;;;;;;;;;;;;;;;37.82;34.91;99989.78;5012459;28;19924;-66
2022/07/22 13:39:19;;;;;;;;;;;;;;;37.52;36.54;99984.00;5016161;28;20410;-66
2022/07/22 13:41:44;;;;;;;;;;;;;;;37.49;36.41;99980.81;5030358;28;19963;-66
2022/07/22 13:44:09;;;;;;;;;;;;;;;37.49;35.66;99973.34;5030154;28;19973;-67
2022/07/22 13:46:35;;;;;;;;;;;;;;;37.53;35.57;99980.13;5030220;28;20429;-66
2022/07/22 13:49:00;;;;;;;;;;;;;;;37.30;36.14;99979.88;5030323;28;19927;-67
2022/07/22 13:51:26;;;;;;;;;;;;;;;36.73;34.95;99971.56;5030305;28;19928;-67
2022/07/22 13:53:51;;;;;;;;;;;;;;;36.50;36.04;99966.53;5031246;28;20354;-66
2022/07/22 13:56:16;;;;;;;;;;;;;;;36.59;36.17;99969.91;5031840;28;19935;-66
2022/07/22 13:58:42;;;;;;;;;;;;;;;36.34;37.45;99967.00;5031858;28;19931;-67
2022/07/22 14:01:08;;;;;;;;;;;;;;;36.24;36.80;99965.69;5031921;28;19931;-66
2022/07/22 14:03:34;;;;;;;;;;;;;;;36.22;36.42;99962.28;5031709;28;19955;-66
2022/07/22 14:05:59;;;;;;;;;;;;;;;36.14;36.19;99968.06;5031976;28;19942;-67
2022/07/22 14:08:24;;;;;;;;;;;;;;;35.92;37.06;99963.81;5031841;28;20062;-66
2022/07/22 14:10:50;;;;;;;;;;;;;;;35.77;37.76;99970.38;5031765;28;19936;-66
2022/07/22 14:13:15;;;;;;;;;;;;;;;35.66;38.53;99972.94;5032034;28;19929;-66
2022/07/22 14:15:40;;;;;;;;;;;;;;;35.67;38.49;99977.41;5027847;28;20273;-66
2022/07/22 14:18:06;;;;;;;;;;;;;;;35.76;39.75;99979.78;5014264;28;20133;-66
2022/07/22 14:20:32;;;;;;;;;;;;;;;35.67;38.32;99988.47;5011840;28;20021;-66
2022/07/22 14:22:57;;;;;;;;;;;;;;;35.59;40.97;99989.53;5024421;28;20459;-66
2022/07/22 14:25:23;;;;;;;;;;;;;;;35.62;40.53;99986.34;5029946;28;19921;-66
2022/07/22 14:27:49;;;;;;;;;;;;;;;35.74;39.44;99992.97;5030188;28;20004;-66
2022/07/22 14:30:14;;;;;;;;;;;;;;;35.65;39.73;99983.16;5020576;28;19917;-66
2022/07/22 14:32:42;;;;;;;;;;;;;;;35.58;39.63;99984.22;5010242;28;19936;-67
2022/07/22 14:35:08;;;;;;;;;;;;;;;35.74;39.79;99989.34;5010558;28;19944;-66
2022/07/22 14:37:33;;;;;;;;;;;;;;;35.78;40.02;99988.69;5013741;28;20343;-66
2022/07/22 14:39:59;;;;;;;;;;;;;;;35.69;40.38;99986.34;5011518;28;19937;-67
2022/07/22 14:42:24;;;;;;;;;;;;;;;35.69;41.02;99986.34;5011566;28;19940;-68
2022/07/22 14:44:49;;;;;;;;;;;;;;;35.66;40.70;99981.25;5011500;28;19961;-66
2022/07/22 14:47:15;;;;;;;;;;;;;;;35.61;40.32;99976.34;5011635;28;19938;-67
2022/07/22 14:49:40;;;;;;;;;;;;;;;35.60;39.64;99958.03;5011953;28;19932;-67
2022/07/22 14:52:05;;;;;;;;;;;;;;;35.60;39.48;99969.09;5018448;28;20301;-66
2022/07/22 14:54:30;;;;;;;;;;;;;;;35.45;42.74;99968.44;5031063;28;19929;-66
2022/07/22 14:56:56;;;;;;;;;;;;;;;35.33;41.22;99967.34;5031167;28;19941;-66
2022/07/22 14:59:25;;;;;;;;;;;;;;;35.26;41.01;99963.69;5031334;28;19928;-67
2022/07/22 15:01:50;;;;;;;;;;;;;;;35.33;40.95;99950.75;5031134;28;19928;-66
2022/07/22 15:04:16;;;;;;;;;;;;;;;35.48;41.16;99951.44;5013299;28;19958;-66
2022/07/22 15:06:41;;;;;;;;;;;;;;;35.43;40.86;99959.50;5034226;28;20421;-66
2022/07/22 15:09:06;;;;;;;;;;;;;;;35.31;40.57;99961.16;5034917;28;20328;-65
2022/07/22 15:11:31;;;;;;;;;;;;;;;34.90;39.71;99949.34;5035221;28;19928;-66
2022/07/22 15:13:57;;;;;;;;;;;;;;;34.51;41.17;99944.44;5034988;28;19925;-66
2022/07/22 15:16:22;;;;;;;;;;;;;;;34.52;40.07;99945.31;5033635;28;19933;-66
2022/07/22 15:18:47;;;;;;;;;;;;;;;34.30;39.68;99941.75;5033568;28;20307;-66
2022/07/22 15:21:13;;;;;;;;;;;;;;;34.42;42.28;99944.84;5027191;28;19937;-66
2022/07/22 15:23:38;;;;;;;;;;;;;;;34.48;41.82;99944.03;5032997;28;19959;-66
2022/07/22 15:26:03;;;;;;;;;;;;;;;34.48;43.85;99944.03;5031809;28;20260;-66
2022/07/22 15:28:29;;;;;;;;;;;;;;;34.53;43.42;99941.50;5033305;28;20049;-66
2022/07/22 15:30:55;;;;;;;;;;;;;;;34.55;41.84;99944.91;5034313;28;19924;-66
2022/07/22 15:33:20;;;;;;;;;;;;;;;34.47;42.04;99942.31;5034661;28;19925;-66
2022/07/22 15:35:46;;;;;;;;;;;;;;;34.43;43.35;99941.03;5034705;28;19924;-66
2022/07/22 15:38:11;;;;;;;;;;;;;;;34.39;43.71;99937.78;5034304;28;19961;-66
2022/07/22 15:40:38;;;;;;;;;;;;;;;34.43;42.67;99938.28;5034602;28;20388;-66
2022/07/22 15:43:03;;;;;;;;;;;;;;;34.39;42.31;99925.88;5034275;28;19994;-66
2022/07/22 15:45:28;;;;;;;;;;;;;;;34.15;40.40;99926.38;5034341;28;20430;-66
2022/07/22 15:47:54;;;;;;;;;;;;;;;34.10;42.04;99923.38;5034178;28;20024;-66
2022/07/22 15:50:20;;;;;;;;;;;;;;;34.14;42.20;99924.66;5017088;28;19937;-66
2022/07/22 15:52:47;;;;;;;;;;;;;;;34.19;43.69;99924.91;5026837;28;19936;-66
2022/07/22 15:55:12;;;;;;;;;;;;;;;34.22;42.40;99933.63;5034143;28;19927;-66
2022/07/22 16:00:21;;;;;;;;;;;;;;;34.05;43.21;99920.38;5033282;28;19942;-66
2022/07/22 16:02:46;;;;;;;;;;;;;;;34.03;44.08;99906.75;5032321;28;19927;-66
2022/07/22 16:05:11;;;;;;;;;;;;;;;33.95;42.41;99897.78;5032076;28;19947;-64
2022/07/22 16:07:37;;;;;;;;;;;;;;;33.88;43.94;99896.84;5032246;28;20374;-65
2022/07/22 16:10:03;;;;;;;;;;;;;;;33.75;44.09;99905.03;5032287;28;19932;-65
2022/07/22 16:12:28;;;;;;;;;;;;;;;33.73;43.05;99909.91;5032501;28;19935;-65
2022/07/22 16:14:53;;;;;;;;;;;;;;;33.62;43.79;99910.44;5032020;28;19929;-65
2022/07/22 16:17:18;;;;;;;;;;;;;;;33.54;45.82;99900.44;5016322;28;19941;-64
2022/07/22 16:19:44;;;;;;;;;;;;;;;33.47;43.80;99909.69;5012591;28;19990;-65
2022/07/22 16:22:09;;;;;;;;;;;;;;;33.34;44.33;99913.16;5021445;28;19991;-64
2022/07/22 16:24:34;;;;;;;;;;;;;;;33.20;45.10;99909.41;5026541;28;19949;-65
2022/07/22 16:26:59;;;;;;;;;;;;;;;33.12;45.88;99912.31;5012428;28;20457;-65
2022/07/22 16:29:25;;;;;;;;;;;;;;;33.03;47.70;99912.63;5012481;28;19979;-65
2022/07/22 16:31:50;;;;;;;;;;;;;;;32.92;45.96;99921.38;5013937;28;19933;-65
2022/07/22 16:34:15;;;;;;;;;;;;;;;32.78;47.15;99914.88;5013925;28;20243;-65
2022/07/22 16:36:41;;;;;;;;;;;;;;;32.69;48.60;99921.53;5013445;28;20348;-65
2022/07/22 16:39:07;;;;;;;;;;;;;;;32.60;50.01;99916.31;5013793;28;20419;-65
2022/07/22 16:41:32;;;;;;;;;;;;;;;32.44;49.84;99917.38;5013729;28;19956;-65
2022/07/22 16:43:59;;;;;;;;;;;;;;;32.35;51.31;99923.16;5013212;28;20010;-65
2022/07/22 16:46:24;;;;;;;;;;;;;;;32.23;52.35;99920.03;5016349;28;19928;-65
2022/07/22 16:48:49;;;;;;;;;;;;;;;32.16;51.75;99915.50;5013517;28;19983;-64
2022/07/22 16:51:14;;;;;;;;;;;;;;;32.11;52.56;99914.16;5013262;28;19974;-64
2022/07/22 16:53:40;;;;;;;;;;;;;;;32.08;52.12;99913.66;5033272;28;20001;-64
2022/07/22 16:56:05;;;;;;;;;;;;;;;32.04;53.01;99920.59;5033262;28;19931;-64
2022/07/22 16:58:32;;;;;;;;;;;;;;;31.98;53.40;99921.34;5033180;28;20302;-64
2022/07/22 17:00:57;;;;;;;;;;;;;;;31.97;54.63;99915.00;5033071;28;20394;-64
2022/07/22 17:03:22;;;;;;;;;;;;;;;31.96;53.22;99912.44;5032985;28;19934;-64
2022/07/22 17:05:48;;;;;;;;;;;;;;;31.93;55.89;99910.03;5032694;28;20044;-64
2022/07/22 17:08:13;;;;;;;;;;;;;;;31.88;54.97;99907.00;5033022;28;19970;-64
2022/07/22 17:10:38;;;;;;;;;;;;;;;31.78;57.38;99912.75;5032037;28;20033;-64
2022/07/22 17:13:03;;;;;;;;;;;;;;;31.67;56.39;99920.59;5015055;28;19928;-64
2022/07/22 17:15:29;;;;;;;;;;;;;;;31.54;56.45;99929.50;5013164;28;20019;-64
2022/07/22 17:17:54;;;;;;;;;;;;;;;31.45;57.71;99940.78;5013175;28;19937;-64
2022/07/22 17:20:19;;;;;;;;;;;;;;;31.41;57.42;99939.41;5012519;28;20401;-64
2022/07/22 17:22:45;;;;;;;;;;;;;;;31.34;58.78;99941.19;5025153;28;19979;-64
2022/07/22 17:25:10;;;;;;;;;;;;;;;31.23;58.40;99942.47;5032436;28;19962;-64
2022/07/22 17:27:35;;;;;;;;;;;;;;;31.15;58.25;99941.66;5031931;28;19934;-64
2022/07/22 17:30:01;;;;;;;;;;;;;;;31.10;59.19;99941.34;5025662;28;20444;-64
2022/07/22 17:32:26;;;;;;;;;;;;;;;31.05;61.32;99943.78;5012635;28;19937;-64
2022/07/22 17:34:51;;;;;;;;;;;;;;;30.99;61.44;99948.09;5012600;28;20005;-67
2022/07/22 17:37:17;;;;;;;;;;;;;;;30.91;61.53;99944.56;5012713;28;19924;-67
2022/07/22 17:39:42;;;;;;;;;;;;;;;30.82;63.12;99955.59;5012457;28;19925;-67
2022/07/22 17:42:08;;;;;;;;;;;;;;;30.74;65.04;99955.59;5012538;28;20032;-67
2022/07/22 17:44:33;;;;;;;;;;;;;;;30.68;68.35;99961.81;5014714;28;20009;-68
2022/07/22 17:46:59;;;;;;;;;;;;;;;30.61;68.86;99958.06;5012548;28;19969;-67
2022/07/22 17:49:24;;;;;;;;;;;;;;;30.51;68.36;99951.94;5010674;28;20069;-67
2022/07/22 17:51:49;;;;;;;;;;;;;;;30.44;69.90;99950.97;5015140;28;19931;-67
2022/07/22 17:54:15;;;;;;;;;;;;;;;30.41;71.48;99945.81;5030279;28;19931;-67
2022/07/22 17:56:40;;;;;;;;;;;;;;;30.38;69.69;99939.84;5030400;28;19944;-67
2022/07/22 17:59:05;;;;;;;;;;;;;;;30.34;68.20;99931.09;5030400;28;20354;-67
2022/07/22 18:01:31;;;;;;;;;;;;;;;30.32;67.12;99913.06;5029964;28;20418;-67
2022/07/22 18:03:56;;;;;;;;;;;;;;;30.32;59.67;99922.19;5030717;28;20322;-67
2022/07/22 18:06:21;;;;;;;;;;;;;;;30.38;58.71;99912.38;5031755;28;20147;-67
2022/07/22 18:08:47;;;;;;;;;;;;;;;30.42;58.96;99920.06;5031790;28;19925;-67
2022/07/22 18:11:13;;;;;;;;;;;;;;;30.45;60.27;99925.22;5031605;28;20352;-67
2022/07/22 18:13:38;;;;;;;;;;;;;;;30.39;63.23;99925.94;5015769;28;20397;-67
2022/07/22 18:16:04;;;;;;;;;;;;;;;30.31;66.71;99931.44;5015588;28;19970;-67
2022/07/22 18:18:29;;;;;;;;;;;;;;;30.17;67.73;99928.53;5031542;28;19982;-67
2022/07/22 18:20:54;;;;;;;;;;;;;;;30.00;67.62;99919.50;5031451;28;19979;-69
2022/07/22 18:23:19;;;;;;;;;;;;;;;29.87;71.32;99924.69;5013782;28;19939;-68
2022/07/22 18:25:45;;;;;;;;;;;;;;;29.72;70.80;99915.44;5023942;28;19926;-68
2022/07/22 18:28:10;;;;;;;;;;;;;;;29.56;73.94;99908.09;5011747;28;19937;-68
2022/07/22 18:30:35;;;;;;;;;;;;;;;29.42;73.08;99907.94;5029943;28;19933;-68
2022/07/22 18:33:00;;;;;;;;;;;;;;;29.21;72.43;99904.84;5031619;28;19927;-68
2022/07/22 18:35:26;;;;;;;;;;;;;;;29.08;72.71;99899.88;5031202;28;20415;-68
2022/07/22 18:37:51;;;;;;;;;;;;;;;28.97;74.99;99893.84;5031476;28;20013;-68
2022/07/22 18:40:17;;;;;;;;;;;;;;;28.83;72.96;99900.00;5029396;28;19931;-68
2022/07/22 18:42:42;;;;;;;;;;;;;;;28.71;73.84;99901.31;5012375;28;20447;-68
2022/07/22 18:45:07;;;;;;;;;;;;;;;28.61;75.89;99897.88;5011430;28;20050;-68
2022/07/22 18:47:33;;;;;;;;;;;;;;;28.54;78.28;99905.03;5012052;28;20267;-67
2022/07/22 18:49:58;;;;;;;;;;;;;;;28.41;78.21;99922.78;5011335;28;19949;-67
2022/07/22 18:52:23;;;;;;;;;;;;;;;28.33;78.52;99925.47;5011688;28;20020;-67
2022/07/22 18:54:49;;;;;;;;;;;;;;;28.30;80.17;99930.41;5011822;28;20003;-68
2022/07/22 18:57:14;;;;;;;;;;;;;;;28.22;80.13;99933.13;5011316;28;20510;-68
2022/07/22 18:59:40;;;;;;;;;;;;;;;28.11;79.10;99945.19;5022219;28;20082;-68
2022/07/22 19:02:05;;;;;;;;;;;;;;;28.01;78.24;99949.06;5031314;28;19936;-68
2022/07/22 19:04:31;;;;;;;;;;;;;;;27.89;78.25;99948.47;5031168;28;19959;-68
2022/07/22 19:06:56;;;;;;;;;;;;;;;27.82;79.05;99944.66;5030989;28;19942;-68
2022/07/22 19:09:21;;;;;;;;;;;;;;;27.79;80.03;99955.88;5031273;28;19926;-68
2022/07/22 19:11:46;;;;;;;;;;;;;;;27.69;79.79;99957.91;5031292;28;20000;-67
2022/07/22 19:14:12;;;;;;;;;;;;;;;27.56;81.46;99962.88;5030857;28;19937;-68
2022/07/22 19:16:37;;;;;;;;;;;;;;;27.44;82.57;99966.91;5013232;28;19938;-68
2022/07/22 19:19:02;;;;;;;;;;;;;;;27.38;82.72;99967.53;5023047;28;20290;-68
2022/07/22 19:21:29;;;;;;;;;;;;;;;27.28;82.53;99969.50;5009889;28;19935;-68